Time;durP1;ratioP1;P1;durP2;ratioP2;P2;SDS_P1;SDS_P2;PMS_P1;PMS_P2;Temp;Humidity;BMP_temperature;BMP_pressure;BME280_temperature;BME280_humidity;BME280_pressure;Samples;Min_cycle;Max_cycle;Signal;HPM_P1;HPM_P2
2021/05/12 00:02:22;;;;;;;1.67;1.58;;;11.40;99.90;;;;;;5093166;28;20619;-40
2021/05/12 00:04:50;;;;;;;1.48;1.38;;;11.40;99.90;;;;;;5093089;28;20234;-40
2021/05/12 00:07:18;;;;;;;1.60;1.50;;;11.40;99.90;;;;;;5093163;28;20213;-40
2021/05/12 00:09:45;;;;;;;1.85;1.75;;;11.40;99.90;;;;;;5093104;28;20248;-41
2021/05/12 00:12:13;;;;;;;2.22;1.67;;;11.40;99.90;;;;;;5093092;28;20226;-40
2021/05/12 00:14:41;;;;;;;1.77;1.67;;;11.40;99.90;;;;;;5093161;28;20234;-40
2021/05/12 00:17:10;;;;;;;1.50;1.40;;;11.40;99.90;;;;;;5093063;28;20207;-40
2021/05/12 00:19:40;;;;;;;1.60;1.50;;;11.30;99.90;;;;;;5092468;28;20259;-42
2021/05/12 00:22:19;;;;;;;1.40;1.30;;;11.30;99.90;;;;;;5092813;28;20249;-41
2021/05/12 00:24:46;;;;;;;1.45;1.35;;;11.40;99.90;;;;;;5092960;28;20262;-41
2021/05/12 00:27:14;;;;;;;1.67;1.58;;;11.40;99.90;;;;;;5092782;28;20296;-41
2021/05/12 00:29:41;;;;;;;1.75;1.65;;;11.40;99.90;;;;;;5092983;28;20287;-41
2021/05/12 00:32:09;;;;;;;1.70;1.60;;;11.30;99.90;;;;;;5092607;28;20390;-41
2021/05/12 00:34:36;;;;;;;1.73;1.50;;;11.30;99.90;;;;;;5092619;28;20289;-41
2021/05/12 00:37:04;;;;;;;1.30;1.20;;;11.30;99.90;;;;;;5093070;28;20298;-40
2021/05/12 00:39:32;;;;;;;1.65;1.55;;;11.40;99.90;;;;;;5092876;28;20499;-41
2021/05/12 00:42:00;;;;;;;1.60;1.50;;;11.40;99.90;;;;;;5092371;28;20723;-41
2021/05/12 00:44:27;;;;;;;1.50;1.40;;;11.40;99.90;;;;;;5092682;28;20230;-41
2021/05/12 00:46:55;;;;;;;1.80;1.70;;;11.40;99.90;;;;;;5092324;28;20253;-41
2021/05/12 00:49:23;;;;;;;1.98;1.88;;;11.40;99.90;;;;;;5092311;28;20211;-41
2021/05/12 00:51:50;;;;;;;1.80;1.70;;;11.50;99.90;;;;;;5092362;28;20226;-40
2021/05/12 00:54:18;;;;;;;1.70;1.60;;;11.50;99.90;;;;;;5092423;28;20610;-41
2021/05/12 00:56:46;;;;;;;2.08;1.90;;;11.40;99.90;;;;;;5092185;28;20302;-40
2021/05/12 00:59:14;;;;;;;1.70;1.60;;;11.50;99.90;;;;;;5092352;28;20684;-40
2021/05/12 01:01:42;;;;;;;2.33;1.55;;;11.50;99.90;;;;;;5092065;28;20618;-41
2021/05/12 01:04:09;;;;;;;2.00;1.90;;;11.50;99.90;;;;;;5092118;28;20605;-41
2021/05/12 01:06:39;;;;;;;2.13;1.95;;;11.50;99.90;;;;;;5092063;28;20764;-40
2021/05/12 01:09:08;;;;;;;1.88;1.77;;;11.40;99.90;;;;;;5092305;28;20256;-45
2021/05/12 01:11:36;;;;;;;1.70;1.60;;;11.40;99.90;;;;;;5091964;28;20681;-41
2021/05/12 01:14:05;;;;;;;1.60;1.50;;;11.40;99.90;;;;;;5092081;28;20214;-40
2021/05/12 01:16:33;;;;;;;1.30;1.20;;;11.40;99.90;;;;;;5091958;28;20264;-41
2021/05/12 01:19:00;;;;;;;1.25;1.25;;;11.40;99.90;;;;;;5092213;28;20206;-40
2021/05/12 01:21:28;;;;;;;1.27;1.17;;;11.30;99.90;;;;;;5092190;28;20252;-40
2021/05/12 01:23:56;;;;;;;1.38;1.27;;;11.40;99.90;;;;;;5091687;28;20330;-41
2021/05/12 01:26:24;;;;;;;1.92;1.20;;;11.40;99.90;;;;;;5092081;28;20238;-41
2021/05/12 01:28:53;;;;;;;1.25;1.15;;;11.40;99.90;;;;;;5091925;28;20263;-41
2021/05/12 01:31:23;;;;;;;1.10;1.00;;;11.40;99.90;;;;;;5093622;28;20642;-41
2021/05/12 01:33:51;;;;;;;1.42;1.33;;;11.40;99.90;;;;;;5098483;28;20253;-44
2021/05/12 01:36:19;;;;;;;3.28;1.92;;;11.40;99.90;;;;;;5098563;28;20275;-41
2021/05/12 01:38:49;;;;;;;1.83;1.50;;;11.40;99.90;;;;;;5098408;28;20301;-40
2021/05/12 01:41:17;;;;;;;1.05;1.02;;;11.40;99.90;;;;;;5098251;28;20199;-41
2021/05/12 01:43:45;;;;;;;1.20;1.10;;;11.40;99.90;;;;;;5098406;28;20215;-41
2021/05/12 01:46:13;;;;;;;2.47;1.25;;;11.40;99.90;;;;;;5098191;28;20206;-40
2021/05/12 01:48:43;;;;;;;0.75;0.75;;;11.50;99.90;;;;;;5098568;28;20210;-41
2021/05/12 01:51:11;;;;;;;0.77;0.77;;;11.50;99.90;;;;;;5098049;28;20696;-41
2021/05/12 01:53:40;;;;;;;0.80;0.80;;;11.40;99.90;;;;;;5098302;28;20268;-41
2021/05/12 01:56:08;;;;;;;1.75;1.45;;;11.40;99.90;;;;;;5093144;28;20253;-41
2021/05/12 01:58:36;;;;;;;1.30;1.20;;;11.40;99.90;;;;;;5098344;28;20253;-41
2021/05/12 02:01:04;;;;;;;1.42;1.33;;;11.40;99.90;;;;;;5098441;28;20248;-40
2021/05/12 02:03:32;;;;;;;1.65;1.55;;;11.40;99.90;;;;;;5098169;28;20241;-40
2021/05/12 02:06:00;;;;;;;1.42;1.30;;;11.40;99.90;;;;;;5098107;28;20668;-41
2021/05/12 02:08:29;;;;;;;1.77;1.67;;;11.40;99.90;;;;;;5098083;28;20211;-41
2021/05/12 02:11:01;;;;;;;1.70;1.60;;;11.40;99.90;;;;;;5098148;28;20202;-41
2021/05/12 02:13:32;;;;;;;1.63;1.50;;;11.30;99.90;;;;;;5097922;28;20721;-41
2021/05/12 02:16:01;;;;;;;2.08;1.98;;;11.30;99.90;;;;;;5097971;28;20301;-41
2021/05/12 02:18:28;;;;;;;2.20;2.00;;;11.30;99.90;;;;;;5098187;28;20595;-41
2021/05/12 02:20:56;;;;;;;1.90;1.80;;;11.20;99.90;;;;;;5098005;28;20210;-41
2021/05/12 02:23:25;;;;;;;1.77;1.67;;;11.20;99.90;;;;;;5097892;28;20680;-41
2021/05/12 02:25:55;;;;;;;1.60;1.50;;;11.30;99.90;;;;;;5098008;28;20669;-40
2021/05/12 02:28:23;;;;;;;2.17;1.98;;;11.30;99.90;;;;;;5098063;28;20575;-42
2021/05/12 02:30:52;;;;;;;2.00;1.80;;;11.30;99.90;;;;;;5097889;28;20756;-41
2021/05/12 02:33:20;;;;;;;1.75;1.65;;;11.30;99.90;;;;;;5098063;28;20293;-41
2021/05/12 02:35:47;;;;;;;1.98;1.88;;;11.20;99.90;;;;;;5097933;28;20203;-41
2021/05/12 02:38:15;;;;;;;1.98;1.88;;;11.30;99.90;;;;;;5098003;28;20659;-41
2021/05/12 02:40:42;;;;;;;1.58;1.48;;;11.30;99.90;;;;;;5098141;28;20242;-41
2021/05/12 02:43:10;;;;;;;1.75;1.60;;;11.40;99.90;;;;;;5095978;28;20289;-40
2021/05/12 02:45:38;;;;;;;2.67;1.52;;;11.40;99.90;;;;;;5094829;28;20317;-40
2021/05/12 02:48:07;;;;;;;3.15;1.20;;;11.40;99.90;;;;;;5094457;28;20315;-40
2021/05/12 02:50:39;;;;;;;1.05;0.90;;;11.40;99.90;;;;;;5094650;28;20672;-41
2021/05/12 02:53:09;;;;;;;1.15;1.10;;;11.40;99.90;;;;;;5093326;28;20700;-41
2021/05/12 02:55:39;;;;;;;1.75;1.25;;;11.40;99.90;;;;;;5094707;28;20302;-41
2021/05/12 02:58:08;;;;;;;1.45;1.23;;;11.40;99.90;;;;;;5094619;28;20235;-42
2021/05/12 03:00:38;;;;;;;1.23;1.13;;;11.40;99.90;;;;;;5094546;28;20664;-41
2021/05/12 03:03:07;;;;;;;1.33;1.00;;;11.40;99.90;;;;;;5094649;28;20203;-41
2021/05/12 03:05:36;;;;;;;0.73;0.73;;;11.50;99.90;;;;;;5094454;28;20249;-41
2021/05/12 03:08:04;;;;;;;0.70;0.70;;;11.50;99.90;;;;;;5094532;28;20290;-41
2021/05/12 03:10:33;;;;;;;1.17;1.08;;;11.50;99.90;;;;;;5094161;28;20210;-41
2021/05/12 03:13:01;;;;;;;1.17;1.08;;;11.50;99.90;;;;;;5093992;28;20226;-41
2021/05/12 03:15:28;;;;;;;1.35;0.90;;;11.60;99.90;;;;;;5093696;28;20255;-41
2021/05/12 03:17:57;;;;;;;0.90;0.90;;;11.60;99.90;;;;;;5094004;28;20211;-41
2021/05/12 03:20:27;;;;;;;1.10;1.00;;;11.60;99.90;;;;;;5094091;28;20206;-41
2021/05/12 03:22:55;;;;;;;0.80;0.80;;;11.60;99.90;;;;;;5094281;28;20206;-41
2021/05/12 03:25:24;;;;;;;0.88;0.88;;;11.60;99.90;;;;;;5093686;28;20242;-41
2021/05/12 03:27:52;;;;;;;1.13;0.77;;;11.60;99.90;;;;;;5093868;28;20709;-41
2021/05/12 03:30:23;;;;;;;1.08;0.98;;;11.60;99.90;;;;;;5093874;28;20310;-41
2021/05/12 03:32:50;;;;;;;0.95;0.93;;;11.60;99.90;;;;;;5093816;28;20238;-41
2021/05/12 03:35:19;;;;;;;1.45;0.90;;;11.50;99.90;;;;;;5093833;28;20235;-41
2021/05/12 03:37:48;;;;;;;0.90;0.90;;;11.50;99.90;;;;;;5093627;28;20513;-41
2021/05/12 03:40:17;;;;;;;1.27;1.17;;;11.50;99.90;;;;;;5093466;28;20779;-41
2021/05/12 03:42:46;;;;;;;1.23;1.05;;;11.50;99.90;;;;;;5093535;28;20376;-41
2021/05/12 03:45:14;;;;;;;1.10;1.00;;;11.60;99.90;;;;;;5093413;28;20245;-42
2021/05/12 03:47:47;;;;;;;1.30;1.20;;;11.60;99.90;;;;;;5093362;28;20252;-41
2021/05/12 03:50:14;;;;;;;1.00;1.00;;;11.60;99.90;;;;;;5093217;28;20748;-41
2021/05/12 03:52:42;;;;;;;1.15;1.10;;;11.50;99.90;;;;;;5093122;28;20708;-41
2021/05/12 03:55:12;;;;;;;1.40;1.30;;;11.50;99.90;;;;;;5091816;28;20757;-41
2021/05/12 03:57:42;;;;;;;1.02;1.02;;;11.60;99.90;;;;;;5093073;28;20218;-41
2021/05/12 04:00:12;;;;;;;1.17;1.17;;;11.60;99.90;;;;;;5092889;28;20247;-41
2021/05/12 04:02:40;;;;;;;1.50;1.40;;;11.50;99.90;;;;;;5092655;28;20260;-40
2021/05/12 04:05:09;;;;;;;1.35;1.25;;;11.60;99.90;;;;;;5092547;28;20243;-40
2021/05/12 04:07:37;;;;;;;2.78;1.60;;;11.60;99.90;;;;;;5092641;28;20592;-40
2021/05/12 04:10:05;;;;;;;1.73;1.38;;;11.60;99.90;;;;;;5092721;28;20209;-41
2021/05/12 04:12:34;;;;;;;1.40;1.30;;;11.60;99.90;;;;;;5092916;28;20312;-41
2021/05/12 04:15:01;;;;;;;1.80;1.45;;;11.60;99.90;;;;;;5092747;28;20207;-40
2021/05/12 04:17:29;;;;;;;1.50;1.40;;;11.60;99.90;;;;;;5092950;28;20298;-41
2021/05/12 04:19:56;;;;;;;1.85;1.75;;;11.60;99.90;;;;;;5092675;28;20314;-41
2021/05/12 04:22:27;;;;;;;3.40;1.73;;;11.70;99.90;;;;;;5092937;28;20230;-42
2021/05/12 04:24:55;;;;;;;2.40;1.55;;;11.70;99.90;;;;;;5092797;28;20330;-40
2021/05/12 04:27:22;;;;;;;1.73;1.63;;;11.70;99.90;;;;;;5092665;28;20242;-40
2021/05/12 04:29:51;;;;;;;1.50;1.40;;;11.80;99.90;;;;;;5092683;28;20276;-41
2021/05/12 04:32:18;;;;;;;1.70;1.60;;;11.80;99.90;;;;;;5092483;28;20222;-41
2021/05/12 04:34:46;;;;;;;2.67;2.10;;;11.80;99.90;;;;;;5092748;28;20245;-41
2021/05/12 04:37:14;;;;;;;1.67;1.58;;;11.70;99.90;;;;;;5092786;28;20234;-40
2021/05/12 04:39:41;;;;;;;1.42;1.40;;;11.80;99.90;;;;;;5092669;28;20729;-40
2021/05/12 04:42:09;;;;;;;1.60;1.50;;;11.70;99.90;;;;;;5092598;28;20298;-41
2021/05/12 04:44:37;;;;;;;2.47;1.80;;;11.80;99.90;;;;;;5092620;28;20314;-40
2021/05/12 04:47:05;;;;;;;1.98;1.88;;;11.80;99.90;;;;;;5092500;28;20213;-40
2021/05/12 04:49:32;;;;;;;1.83;1.73;;;11.80;99.90;;;;;;5092751;28;20207;-40
2021/05/12 04:52:00;;;;;;;2.95;2.22;;;11.80;99.90;;;;;;5092348;28;20308;-40
2021/05/12 04:54:27;;;;;;;2.20;2.10;;;11.80;99.90;;;;;;5092455;28;20713;-40
2021/05/12 04:56:54;;;;;;;2.30;2.10;;;11.80;99.90;;;;;;5092414;28;20701;-41
2021/05/12 04:59:23;;;;;;;2.38;2.00;;;11.80;99.90;;;;;;5092216;28;20665;-41
2021/05/12 05:01:51;;;;;;;3.03;2.10;;;11.80;99.90;;;;;;5092522;28;20305;-41
2021/05/12 05:04:21;;;;;;;2.30;2.10;;;11.80;99.90;;;;;;5092265;28;20752;-41
2021/05/12 05:06:50;;;;;;;2.63;2.42;;;11.80;99.90;;;;;;5092174;28;20217;-41
2021/05/12 05:09:19;;;;;;;2.60;2.40;;;11.70;99.90;;;;;;5092386;28;20214;-41
2021/05/12 05:11:47;;;;;;;3.20;2.90;;;11.70;99.90;;;;;;5092092;28;20222;-42
2021/05/12 05:14:15;;;;;;;4.38;3.30;;;11.80;99.90;;;;;;5092434;28;20217;-43
2021/05/12 05:16:42;;;;;;;3.00;2.63;;;11.80;99.90;;;;;;5092223;28;20238;-41
2021/05/12 05:19:10;;;;;;;4.65;2.35;;;11.80;99.90;;;;;;5092336;28;20217;-42
2021/05/12 05:21:41;;;;;;;2.80;1.85;;;11.80;99.90;;;;;;5092247;28;20309;-42
2021/05/12 05:24:09;;;;;;;3.10;2.20;;;11.80;99.90;;;;;;5091986;28;20341;-42
2021/05/12 05:26:37;;;;;;;4.15;2.10;;;11.70;99.90;;;;;;5091668;28;20535;-41
2021/05/12 05:29:04;;;;;;;3.30;2.25;;;11.60;99.90;;;;;;5091795;28;20607;-41
2021/05/12 05:31:32;;;;;;;1.80;1.70;;;11.60;99.90;;;;;;5092042;28;20209;-39
2021/05/12 05:34:00;;;;;;;2.15;1.92;;;11.60;99.90;;;;;;5091955;28;20318;-39
2021/05/12 05:36:27;;;;;;;2.28;2.05;;;11.60;99.90;;;;;;5091935;28;20663;-40
2021/05/12 05:38:55;;;;;;;1.92;1.83;;;11.50;99.90;;;;;;5091558;28;20211;-41
2021/05/12 05:41:23;;;;;;;4.57;1.70;;;11.60;99.90;;;;;;5091842;28;20218;-41
2021/05/12 05:43:51;;;;;;;2.03;1.88;;;11.60;99.90;;;;;;5091967;28;20199;-41
2021/05/12 05:46:18;;;;;;;4.72;2.25;;;11.60;99.90;;;;;;5091827;28;20301;-40
2021/05/12 05:48:45;;;;;;;2.65;2.10;;;11.50;99.90;;;;;;5091964;28;20495;-40
2021/05/12 05:51:13;;;;;;;4.65;1.90;;;11.50;99.90;;;;;;5091634;28;20673;-41
2021/05/12 05:53:40;;;;;;;3.33;1.75;;;11.50;99.90;;;;;;5091928;28;20313;-40
2021/05/12 05:56:08;;;;;;;2.15;1.90;;;11.50;99.90;;;;;;5091772;28;20210;-40
2021/05/12 05:58:36;;;;;;;2.25;1.90;;;11.60;99.90;;;;;;5091779;28;20761;-41
2021/05/12 06:01:03;;;;;;;3.22;1.92;;;11.60;99.90;;;;;;5091797;28;20243;-41
2021/05/12 06:03:31;;;;;;;1.90;1.67;;;11.60;99.90;;;;;;5091763;28;20366;-40
2021/05/12 06:05:58;;;;;;;3.55;1.80;;;11.60;99.90;;;;;;5091582;28;20612;-40
2021/05/12 06:08:26;;;;;;;2.88;2.00;;;11.60;99.90;;;;;;5091521;28;20207;-40
2021/05/12 06:10:53;;;;;;;3.00;1.60;;;11.60;99.90;;;;;;5091697;28;20207;-40
2021/05/12 06:13:22;;;;;;;2.22;1.80;;;11.60;99.90;;;;;;5091377;28;20334;-40
2021/05/12 06:15:49;;;;;;;1.60;1.50;;;11.60;99.90;;;;;;5091360;28;20580;-40
2021/05/12 06:18:17;;;;;;;5.22;1.58;;;11.60;99.90;;;;;;5092249;28;20207;-40
2021/05/12 06:20:44;;;;;;;2.00;1.80;;;11.60;99.90;;;;;;5095220;28;20255;-40
2021/05/12 06:23:11;;;;;;;2.00;1.60;;;11.70;99.90;;;;;;5095191;28;20639;-41
2021/05/12 06:25:55;;;;;;;3.10;1.40;;;11.70;99.90;;;;;;5095338;28;20253;-41
2021/05/12 06:28:23;;;;;;;2.47;1.50;;;11.60;99.90;;;;;;5095369;28;20206;-41
2021/05/12 06:30:51;;;;;;;1.40;1.30;;;11.70;99.90;;;;;;5094805;28;20213;-41
2021/05/12 06:33:20;;;;;;;1.63;1.20;;;11.60;99.90;;;;;;5094999;28;20249;-40
2021/05/12 06:35:47;;;;;;;1.38;1.23;;;11.60;99.90;;;;;;5095041;28;20309;-39
2021/05/12 06:38:18;;;;;;;1.70;1.48;;;11.60;99.90;;;;;;5095012;28;20261;-41
2021/05/12 06:40:46;;;;;;;2.13;1.50;;;11.60;99.90;;;;;;5095031;28;20214;-43
2021/05/12 06:43:13;;;;;;;1.60;1.42;;;11.70;99.90;;;;;;5094790;28;20416;-44
2021/05/12 06:45:42;;;;;;;2.00;1.50;;;11.70;99.90;;;;;;5094873;28;20260;-44
2021/05/12 06:48:10;;;;;;;2.45;1.50;;;11.80;99.90;;;;;;5094784;28;20215;-40
2021/05/12 06:50:37;;;;;;;1.50;1.40;;;11.70;99.90;;;;;;5094972;28;20252;-40
2021/05/12 06:53:05;;;;;;;1.70;1.60;;;11.70;99.90;;;;;;5094827;28;20321;-40
2021/05/12 06:55:32;;;;;;;1.42;1.33;;;11.70;99.90;;;;;;5094753;28;20246;-40
2021/05/12 06:58:00;;;;;;;1.60;1.50;;;11.70;99.90;;;;;;5094480;28;20626;-40
2021/05/12 07:00:27;;;;;;;2.92;1.48;;;11.80;99.90;;;;;;5094838;28;20250;-40
2021/05/12 07:02:56;;;;;;;1.33;1.23;;;11.70;99.90;;;;;;5094768;28;20238;-40
2021/05/12 07:05:23;;;;;;;1.80;1.70;;;11.70;99.90;;;;;;5094422;28;20239;-39
2021/05/12 07:07:51;;;;;;;1.75;1.60;;;11.60;99.90;;;;;;5094602;28;20225;-38
2021/05/12 07:10:19;;;;;;;1.83;1.63;;;11.60;99.90;;;;;;5094436;28;20241;-38
2021/05/12 07:12:47;;;;;;;1.65;1.55;;;11.60;99.90;;;;;;5094067;28;20562;-38
2021/05/12 07:15:15;;;;;;;1.48;1.38;;;11.60;99.90;;;;;;5094440;28;20253;-38
2021/05/12 07:17:43;;;;;;;2.22;1.83;;;11.70;99.90;;;;;;5094151;28;20210;-39
2021/05/12 07:20:12;;;;;;;1.65;1.55;;;11.70;99.90;;;;;;5094208;28;20238;-39
2021/05/12 07:22:40;;;;;;;1.60;1.50;;;11.70;99.90;;;;;;5094150;28;20256;-39
2021/05/12 07:25:08;;;;;;;1.95;1.70;;;11.80;99.90;;;;;;5094065;28;20273;-42
2021/05/12 07:27:36;;;;;;;1.60;1.50;;;11.80;99.90;;;;;;5093981;28;20613;-40
2021/05/12 07:30:06;;;;;;;1.98;1.80;;;11.80;99.90;;;;;;5093824;28;20249;-41
2021/05/12 07:32:36;;;;;;;2.28;2.08;;;11.80;99.90;;;;;;5094027;28;20207;-40
2021/05/12 07:35:07;;;;;;;2.35;2.15;;;11.80;99.90;;;;;;5093982;28;20203;-39
2021/05/12 07:37:35;;;;;;;1.58;1.48;;;11.80;99.90;;;;;;5093955;28;20207;-39
2021/05/12 07:40:04;;;;;;;2.15;1.95;;;11.90;99.90;;;;;;5093857;28;20210;-43
2021/05/12 07:42:31;;;;;;;2.22;2.03;;;11.90;99.90;;;;;;5093780;28;20297;-41
2021/05/12 07:44:59;;;;;;;1.98;1.88;;;11.90;99.90;;;;;;5093705;28;20310;-42
2021/05/12 07:47:26;;;;;;;2.45;1.90;;;11.90;99.90;;;;;;5093626;28;20729;-44
2021/05/12 07:49:54;;;;;;;4.28;2.30;;;11.90;99.90;;;;;;5093689;28;20215;-43
2021/05/12 07:52:21;;;;;;;3.78;2.17;;;12.00;99.90;;;;;;5093455;28;20253;-44
2021/05/12 07:54:50;;;;;;;1.90;1.80;;;12.00;99.90;;;;;;5093681;28;20397;-44
2021/05/12 07:57:19;;;;;;;3.53;2.25;;;12.00;99.90;;;;;;5093410;28;20642;-44
2021/05/12 07:59:46;;;;;;;3.10;2.42;;;12.00;99.90;;;;;;5093584;28;20210;-48
2021/05/12 08:02:14;;;;;;;4.88;2.88;;;11.90;99.90;;;;;;5093320;28;20214;-43
2021/05/12 08:04:42;;;;;;;3.08;2.85;;;11.90;99.90;;;;;;5093195;28;20206;-41
2021/05/12 08:07:09;;;;;;;2.83;2.63;;;12.00;99.90;;;;;;5093110;28;20264;-40
2021/05/12 08:09:37;;;;;;;2.80;2.60;;;12.00;99.90;;;;;;5093085;28;20683;-40
2021/05/12 08:12:07;;;;;;;3.63;2.78;;;12.00;99.90;;;;;;5093153;28;20206;-41
2021/05/12 08:14:39;;;;;;;5.43;4.00;;;12.00;99.90;;;;;;5092727;28;20734;-40
2021/05/12 08:17:07;;;;;;;5.93;3.22;;;12.00;99.90;;;;;;5093004;28;20764;-41
2021/05/12 08:19:34;;;;;;;3.60;3.30;;;12.00;99.90;;;;;;5092959;28;20256;-40
2021/05/12 08:22:03;;;;;;;3.30;3.00;;;12.00;99.90;;;;;;5093230;28;20260;-40
2021/05/12 08:24:30;;;;;;;4.13;3.72;;;12.10;99.90;;;;;;5092937;28;20266;-39
2021/05/12 08:27:01;;;;;;;3.90;3.60;;;12.10;99.90;;;;;;5093114;28;20252;-39
2021/05/12 08:29:29;;;;;;;4.00;3.70;;;12.10;99.90;;;;;;5092868;28;20724;-39
2021/05/12 08:31:57;;;;;;;4.53;4.10;;;12.10;99.90;;;;;;5092754;28;20246;-39
2021/05/12 08:34:28;;;;;;;3.83;3.53;;;12.20;99.90;;;;;;5092636;28;20226;-41
2021/05/12 08:36:55;;;;;;;5.22;3.63;;;12.30;99.90;;;;;;5092740;28;20285;-38
2021/05/12 08:39:25;;;;;;;5.30;3.72;;;12.40;99.90;;;;;;5092681;28;20245;-38
2021/05/12 08:41:52;;;;;;;4.00;3.58;;;12.40;99.90;;;;;;5092129;28;20207;-38
2021/05/12 08:44:21;;;;;;;3.65;3.35;;;12.50;99.90;;;;;;5091243;28;20210;-38
2021/05/12 08:46:50;;;;;;;3.92;3.63;;;12.50;99.90;;;;;;5092691;28;20202;-38
2021/05/12 08:49:20;;;;;;;4.05;3.65;;;12.60;99.90;;;;;;5092758;28;20207;-38
2021/05/12 08:51:47;;;;;;;4.78;3.45;;;12.60;99.90;;;;;;5092471;28;20253;-38
2021/05/12 08:54:15;;;;;;;3.72;3.42;;;12.60;99.90;;;;;;5092311;28;20672;-38
2021/05/12 08:56:44;;;;;;;4.70;4.05;;;12.60;99.90;;;;;;5092396;28;20297;-42
2021/05/12 08:59:15;;;;;;;4.38;3.97;;;12.60;99.90;;;;;;5092474;28;20670;-40
2021/05/12 09:01:43;;;;;;;5.53;4.00;;;12.50;99.90;;;;;;5091304;28;20256;-40
2021/05/12 09:04:12;;;;;;;5.28;4.38;;;12.50;99.90;;;;;;5092265;28;20203;-40
2021/05/12 09:06:39;;;;;;;5.63;3.88;;;12.40;99.90;;;;;;5092350;28;20245;-40
2021/05/12 09:09:08;;;;;;;5.38;4.80;;;12.40;99.90;;;;;;5092112;28;20211;-40
2021/05/12 09:11:36;;;;;;;5.47;5.05;;;12.50;99.90;;;;;;5092013;28;20246;-40
2021/05/12 09:14:04;;;;;;;4.03;3.72;;;12.50;99.90;;;;;;5091920;28;20807;-44
2021/05/12 09:16:33;;;;;;;3.78;3.47;;;12.50;99.90;;;;;;5092181;28;20252;-43
2021/05/12 09:19:07;;;;;;;4.07;3.63;;;12.50;99.90;;;;;;5092108;28;20209;-43
2021/05/12 09:21:47;;;;;;;4.53;4.13;;;12.40;99.90;;;;;;5092041;28;20293;-42
2021/05/12 09:24:24;;;;;;;4.60;4.03;;;12.40;99.90;;;;;;5091885;28;20299;-41
2021/05/12 09:26:53;;;;;;;4.10;3.80;;;12.40;99.90;;;;;;5091817;28;20263;-42
2021/05/12 09:29:24;;;;;;;4.50;4.13;;;12.50;99.90;;;;;;5091653;28;20211;-42
2021/05/12 09:31:52;;;;;;;5.50;3.90;;;12.70;99.90;;;;;;5091527;28;20286;-41
2021/05/12 09:34:20;;;;;;;4.20;3.80;;;12.90;99.90;;;;;;5091411;28;20313;-41
2021/05/12 09:36:48;;;;;;;6.13;4.75;;;13.00;99.90;;;;;;5091328;28;20288;-42
2021/05/12 09:39:16;;;;;;;4.50;4.07;;;13.20;99.90;;;;;;5091360;28;20293;-44
2021/05/12 09:41:43;;;;;;;4.38;4.05;;;13.40;99.90;;;;;;5091794;28;20206;-43
2021/05/12 09:44:11;;;;;;;4.63;4.22;;;13.50;99.90;;;;;;5091753;28;20207;-42
2021/05/12 09:46:40;;;;;;;4.20;3.90;;;13.60;99.90;;;;;;5091562;28;20267;-41
2021/05/12 09:49:14;;;;;;;4.85;4.35;;;13.60;99.90;;;;;;5091722;28;20210;-40
2021/05/12 09:51:44;;;;;;;4.53;4.20;;;13.60;99.90;;;;;;5091976;28;20210;-43
2021/05/12 09:54:18;;;;;;;3.97;3.60;;;13.60;99.90;;;;;;5095102;28;20303;-40
2021/05/12 09:56:50;;;;;;;4.32;3.92;;;13.50;99.90;;;;;;5095689;28;20206;-41
2021/05/12 09:59:20;;;;;;;5.22;4.82;;;13.40;99.90;;;;;;5095603;28;20666;-42
2021/05/12 10:01:50;;;;;;;3.53;3.28;;;13.30;99.90;;;;;;5095738;28;20241;-43
2021/05/12 10:04:37;;;;;;;4.28;3.97;;;13.20;99.90;;;;;;5095877;28;20504;-42
2021/05/12 10:07:19;;;;;;;4.43;4.03;;;13.10;99.90;;;;;;5095704;28;20264;-42
2021/05/12 10:09:49;;;;;;;5.70;5.20;;;13.10;99.90;;;;;;5095388;28;20309;-42
2021/05/12 10:12:19;;;;;;;5.18;4.68;;;13.10;99.90;;;;;;5095481;28;20688;-42
2021/05/12 10:14:48;;;;;;;5.22;4.70;;;13.10;99.90;;;;;;5095437;28;20230;-42
2021/05/12 10:17:17;;;;;;;5.30;4.80;;;13.10;99.90;;;;;;5095408;28;20210;-40
2021/05/12 10:19:46;;;;;;;5.68;4.85;;;13.10;99.90;;;;;;5095335;28;20641;-40
2021/05/12 10:22:15;;;;;;;4.60;4.20;;;13.10;99.90;;;;;;5095152;28;20246;-40
2021/05/12 10:24:44;;;;;;;4.40;4.00;;;13.20;99.90;;;;;;5095119;28;20288;-39
2021/05/12 10:27:14;;;;;;;4.15;3.85;;;13.20;99.90;;;;;;5095252;28;20614;-39
2021/05/12 10:29:48;;;;;;;5.05;4.65;;;13.20;99.90;;;;;;5095034;28;20242;-42
2021/05/12 10:32:18;;;;;;;4.68;4.15;;;13.20;99.90;;;;;;5095183;28;20293;-42
2021/05/12 10:34:48;;;;;;;5.28;4.80;;;13.10;99.90;;;;;;5094829;28;20318;-42
2021/05/12 10:37:19;;;;;;;4.70;4.30;;;13.20;99.90;;;;;;5095048;28;20301;-42
2021/05/12 10:39:50;;;;;;;4.50;4.15;;;13.20;99.90;;;;;;5094915;28;20731;-41
2021/05/12 10:42:43;;;;;;;4.50;4.10;;;13.30;99.90;;;;;;5095029;28;20267;-42
2021/05/12 10:45:15;;;;;;;5.60;4.88;;;13.30;99.90;;;;;;5094510;28;20203;-41
2021/05/12 10:47:42;;;;;;;4.97;4.57;;;13.40;99.90;;;;;;5094982;28;20293;-42
2021/05/12 10:50:10;;;;;;;4.70;4.30;;;13.40;99.90;;;;;;5094927;28;20233;-38
2021/05/12 10:52:38;;;;;;;6.22;5.63;;;13.50;99.90;;;;;;5094666;28;20636;-41
2021/05/12 10:55:08;;;;;;;4.72;4.32;;;13.50;99.90;;;;;;5094510;28;20719;-41
2021/05/12 10:57:47;;;;;;;4.45;4.15;;;13.50;99.90;;;;;;5094434;28;20241;-41
2021/05/12 11:00:16;;;;;;;4.40;3.50;;;13.40;99.90;;;;;;5094732;28;20214;-41
2021/05/12 11:03:00;;;;;;;3.42;3.08;;;13.40;99.90;;;;;;5094745;28;20289;-40
2021/05/12 11:05:42;;;;;;;3.67;3.30;;;13.30;99.90;;;;;;5093793;28;20204;-41
2021/05/12 11:08:16;;;;;;;4.22;3.53;;;13.20;99.90;;;;;;5094309;28;20589;-41
2021/05/12 11:10:51;;;;;;;4.00;3.67;;;13.10;99.90;;;;;;5094487;28;20297;-41
2021/05/12 11:13:22;;;;;;;4.43;4.03;;;13.10;99.90;;;;;;5094131;28;20363;-41
2021/05/12 11:15:53;;;;;;;4.55;4.15;;;13.10;99.90;;;;;;5094356;28;20237;-41
2021/05/12 11:18:52;;;;;;;4.38;4.07;;;13.00;99.90;;;;;;5094045;28;20206;-41
2021/05/12 11:21:27;;;;;;;5.07;4.68;;;13.10;99.90;;;;;;5090963;28;20210;-42
2021/05/12 11:24:15;;;;;;;5.68;5.18;;;13.20;99.90;;;;;;5093712;28;20238;-41
2021/05/12 11:26:57;;;;;;;7.32;5.28;;;13.30;99.90;;;;;;5093967;28;20260;-41
2021/05/12 11:32:12;;;;;;;5.22;4.82;;;13.30;99.90;;;;;;5093830;28;20699;-41
2021/05/12 11:34:41;;;;;;;4.97;4.50;;;13.40;99.90;;;;;;5093786;28;20230;-38
2021/05/12 11:37:12;;;;;;;4.90;4.40;;;13.30;99.90;;;;;;5093724;28;20297;-39
2021/05/12 11:39:54;;;;;;;5.57;4.80;;;13.20;99.90;;;;;;5093941;28;20313;-41
2021/05/12 11:42:22;;;;;;;6.95;4.72;;;13.20;99.90;;;;;;5093845;28;20242;-40
2021/05/12 11:45:05;;;;;;;4.30;4.00;;;13.10;99.90;;;;;;5093869;28;20209;-40
2021/05/12 11:47:34;;;;;;;4.53;4.22;;;13.10;99.90;;;;;;5093698;28;20217;-39
2021/05/12 11:50:02;;;;;;;5.13;4.57;;;13.00;99.90;;;;;;5093410;28;20628;-40
2021/05/12 11:52:30;;;;;;;6.35;5.80;;;12.90;99.90;;;;;;5093520;28;20234;-40
2021/05/12 11:55:04;;;;;;;5.53;5.00;;;12.90;99.90;;;;;;5093136;28;20708;-40
2021/05/12 11:57:32;;;;;;;4.80;4.40;;;12.90;99.90;;;;;;5093345;28;20214;-41
2021/05/12 12:00:03;;;;;;;5.72;4.88;;;13.00;99.90;;;;;;5092899;28;20211;-39
2021/05/12 12:02:31;;;;;;;6.80;6.10;;;13.00;99.90;;;;;;5093220;28;20206;-39
2021/05/12 12:05:02;;;;;;;5.60;5.18;;;13.10;99.90;;;;;;5093298;28;20233;-39
2021/05/12 12:07:31;;;;;;;6.00;5.50;;;13.10;99.90;;;;;;5093515;28;20282;-39
2021/05/12 12:10:03;;;;;;;7.32;6.03;;;13.10;99.90;;;;;;5093155;28;20242;-40
2021/05/12 12:12:32;;;;;;;7.35;5.70;;;13.10;99.90;;;;;;5093124;28;20289;-40
2021/05/12 12:15:09;;;;;;;6.10;5.57;;;13.10;99.90;;;;;;5092779;28;20267;-40
2021/05/12 12:17:36;;;;;;;6.82;6.22;;;13.10;99.90;;;;;;5092383;28;20249;-40
2021/05/12 12:20:07;;;;;;;6.70;5.72;;;13.10;99.90;;;;;;5093097;28;20245;-40
2021/05/12 12:22:35;;;;;;;6.50;5.78;;;13.20;99.90;;;;;;5092954;28;20207;-39
2021/05/12 12:25:11;;;;;;;6.43;5.18;;;13.20;99.90;;;;;;5092631;28;20253;-40
2021/05/12 12:27:40;;;;;;;6.20;5.63;;;13.30;99.90;;;;;;5092811;28;20232;-40
2021/05/12 12:30:14;;;;;;;5.30;4.90;;;13.30;99.90;;;;;;5092925;28;20252;-40
2021/05/12 12:32:42;;;;;;;5.68;4.82;;;13.40;99.90;;;;;;5092913;28;20245;-41
2021/05/12 12:35:10;;;;;;;6.38;5.78;;;13.40;99.90;;;;;;5092849;28;20266;-40
2021/05/12 12:37:40;;;;;;;6.30;5.80;;;13.30;99.90;;;;;;5092606;28;20590;-40
2021/05/12 12:40:10;;;;;;;7.03;6.32;;;13.30;99.90;;;;;;5092840;28;20240;-40
2021/05/12 12:42:39;;;;;;;7.13;6.43;;;13.30;99.90;;;;;;5092581;28;20683;-40
2021/05/12 12:45:21;;;;;;;7.57;6.10;;;13.20;99.90;;;;;;5092611;28;20256;-40
2021/05/12 12:47:52;;;;;;;8.93;6.15;;;13.20;99.90;;;;;;5092736;28;20518;-40
2021/05/12 12:50:21;;;;;;;6.90;6.30;;;13.20;99.90;;;;;;5092692;28;20761;-41
2021/05/12 12:52:49;;;;;;;7.55;6.28;;;13.00;99.90;;;;;;5092706;28;20210;-41
2021/05/12 12:55:18;;;;;;;6.97;6.28;;;12.90;99.90;;;;;;5092586;28;20258;-40
2021/05/12 12:57:47;;;;;;;7.85;7.13;;;12.80;99.90;;;;;;5092368;28;20207;-40
2021/05/12 13:00:22;;;;;;;9.20;7.05;;;12.70;99.90;;;;;;5092175;28;20241;-42
2021/05/12 13:03:01;;;;;;;7.28;6.57;;;12.70;99.90;;;;;;5092457;28;20285;-41